Time;durP1;ratioP1;P1;durP2;ratioP2;P2;SDS_P1;SDS_P2;PMS_P1;PMS_P2;Temp;Humidity;BMP_temperature;BMP_pressure;BME280_temperature;BME280_humidity;BME280_pressure;Samples;Min_cycle;Max_cycle;Signal;HPM_P1;HPM_P2
2023/06/10 00:01:24;;;;;;;;;10.00;10.00;;;;;-143.57;100.00;65101.44;5016448;28;46294;-53
2023/06/10 00:03:50;;;;;;;;;12.50;11.75;;;;;-143.57;100.00;65101.44;5016183;28;45477;-53
2023/06/10 00:06:16;;;;;;;;;12.20;12.00;;;;;-143.57;100.00;65101.44;5016287;28;45447;-51
2023/06/10 00:08:42;;;;;;;;;11.00;10.25;;;;;-143.57;100.00;65101.44;5016838;28;45396;-51
2023/06/10 00:11:07;;;;;;;;;11.60;10.80;;;;;-143.57;100.00;65101.44;5015903;28;46368;-53
2023/06/10 00:13:32;;;;;;;;;9.25;9.25;;;;;-143.57;100.00;65101.44;5015210;28;45251;-51
2023/06/10 00:15:58;;;;;;;;;11.00;11.00;;;;;-143.57;100.00;65101.44;5016320;28;45308;-51
2023/06/10 00:18:23;;;;;;;;;11.00;10.50;;;;;-143.57;100.00;65101.44;5016757;28;45347;-48
2023/06/10 00:20:52;;;;;;;;;13.25;12.00;;;;;-143.57;100.00;65101.44;5015920;28;45340;-52
2023/06/10 00:23:18;;;;;;;;;10.20;10.20;;;;;-143.57;100.00;65101.44;5015904;28;45321;-50
2023/06/10 00:25:43;;;;;;;;;11.00;10.00;;;;;-143.57;100.00;65101.44;5016223;28;45359;-50
2023/06/10 00:28:08;;;;;;;;;9.00;9.00;;;;;-143.57;100.00;65101.44;5016099;28;45386;-54
2023/06/10 00:30:34;;;;;;;;;10.75;10.75;;;;;-143.57;100.00;65101.44;5015993;28;46136;-52
2023/06/10 00:32:59;;;;;;;;;16.25;13.50;;;;;-143.57;100.00;65101.44;5015860;28;45430;-51
2023/06/10 00:35:25;;;;;;;;;14.75;11.75;;;;;-143.57;100.00;65101.44;4997876;28;45407;-49
2023/06/10 00:37:50;;;;;;;;;16.00;11.25;;;;;-143.57;100.00;65101.44;5016190;28;45361;-51
2023/06/10 00:40:16;;;;;;;;;9.50;9.50;;;;;-143.57;100.00;65101.44;5015753;28;45291;-51
2023/06/10 00:42:42;;;;;;;;;10.20;10.20;;;;;-143.57;100.00;65101.44;5016017;28;45501;-50
2023/06/10 00:45:07;;;;;;;;;14.25;11.25;;;;;-143.57;100.00;65101.44;5015642;28;45410;-47
2023/06/10 00:47:35;;;;;;;;;9.25;9.00;;;;;-143.57;100.00;65101.44;5016312;28;45357;-51
2023/06/10 00:50:00;;;;;;;;;14.00;12.40;;;;;-143.57;100.00;65101.44;5015522;28;46210;-53
2023/06/10 00:52:29;;;;;;;;;10.00;9.00;;;;;-143.57;100.00;65101.44;5015568;28;45330;-51
2023/06/10 00:54:55;;;;;;;;;13.20;10.40;;;;;-143.57;100.00;65101.44;5015808;28;45369;-53
2023/06/10 00:57:20;;;;;;;;;13.00;12.50;;;;;-143.57;100.00;65101.44;5016109;28;45696;-50
2023/06/10 00:59:48;;;;;;;;;15.25;11.25;;;;;-143.57;100.00;65101.44;5015534;28;46910;-52
2023/06/10 01:02:14;;;;;;;;;13.20;12.20;;;;;-143.57;100.00;65101.44;5015483;28;45477;-50
2023/06/10 01:04:39;;;;;;;;;12.00;10.50;;;;;-143.57;100.00;65101.44;5014584;28;45404;-52
2023/06/10 01:07:28;;;;;;;;;11.75;11.00;;;;;-143.57;100.00;65101.44;5015735;28;45546;-46
2023/06/10 01:09:57;;;;;;;;;10.40;9.00;;;;;-143.57;100.00;65101.44;5015290;28;45480;-52
2023/06/10 01:12:28;;;;;;;;;12.60;8.60;;;;;-143.57;100.00;65101.44;5015324;28;45385;-51
2023/06/10 01:14:55;;;;;;;;;11.60;8.80;;;;;-143.57;100.00;65101.44;5015537;28;45311;-46
2023/06/10 01:17:20;;;;;;;;;11.00;10.00;;;;;-143.57;100.00;65101.44;5015230;28;45415;-43
2023/06/10 01:19:55;;;;;;;;;10.25;10.00;;;;;-143.57;100.00;65101.44;5015031;28;45385;-44
2023/06/10 01:22:22;;;;;;;;;13.00;11.60;;;;;-143.57;100.00;65101.44;5015276;28;45268;-49
2023/06/10 01:24:50;;;;;;;;;7.00;5.20;;;;;-143.57;100.00;65101.44;5015284;28;45339;-53
2023/06/10 01:27:21;;;;;;;;;9.40;8.80;;;;;-143.57;100.00;65101.44;5019138;28;45524;-49
2023/06/10 01:29:52;;;;;;;;;9.60;8.60;;;;;-143.57;100.00;65101.44;5018468;28;46115;-45
2023/06/10 01:32:32;;;;;;;;;10.60;9.80;;;;;-143.57;100.00;65101.44;5018576;28;45421;-46
2023/06/10 01:35:00;;;;;;;;;9.20;9.20;;;;;-143.57;100.00;65101.44;5019020;28;45302;-51
2023/06/10 01:37:26;;;;;;;;;11.60;10.20;;;;;-143.57;100.00;65101.44;5018867;28;45370;-48
2023/06/10 01:39:54;;;;;;;;;8.00;8.00;;;;;-143.57;100.00;65101.44;5018508;28;45363;-49
2023/06/10 01:42:21;;;;;;;;;10.00;10.00;;;;;-143.57;100.00;65101.44;5018698;28;45227;-45
2023/06/10 01:44:46;;;;;;;;;9.60;9.20;;;;;-143.57;100.00;65101.44;5018670;28;45296;-49
2023/06/10 01:47:12;;;;;;;;;10.50;9.00;;;;;-143.57;100.00;65101.44;5018936;28;45267;-45
2023/06/10 01:49:37;;;;;;;;;12.75;9.50;;;;;-143.57;100.00;65101.44;5018368;28;46151;-51
2023/06/10 01:52:03;;;;;;;;;14.00;10.00;;;;;-143.57;100.00;65101.44;5018444;28;45420;-48
2023/06/10 01:54:28;;;;;;;;;9.00;6.00;;;;;-143.57;100.00;65101.44;5018522;28;45372;-53
2023/06/10 01:56:54;;;;;;;;;9.75;9.75;;;;;-143.57;100.00;65101.44;5018769;28;45383;-51
2023/06/10 01:59:19;;;;;;;;;12.00;9.25;;;;;-143.57;100.00;65101.44;5018143;28;46659;-51
2023/06/10 02:01:45;;;;;;;;;10.00;10.00;;;;;-143.57;100.00;65101.44;5017683;28;45408;-54
2023/06/10 02:04:10;;;;;;;;;10.25;10.25;;;;;-143.57;100.00;65101.44;5018382;28;45384;-53
2023/06/10 02:06:35;;;;;;;;;9.00;9.00;;;;;-143.57;100.00;65101.44;5018895;28;45326;-53
2023/06/10 02:09:01;;;;;;;;;9.25;8.00;;;;;-143.57;100.00;65101.44;5018491;28;45350;-50
2023/06/10 02:11:26;;;;;;;;;9.50;8.25;;;;;-143.57;100.00;65101.44;5017355;28;45371;-52
2023/06/10 02:13:52;;;;;;;;;10.75;9.00;;;;;-143.57;100.00;65101.44;5018138;28;45420;-53
2023/06/10 02:16:18;;;;;;;;;10.50;10.00;;;;;-143.57;100.00;65101.44;5018389;28;45470;-50
2023/06/10 02:18:44;;;;;;;;;12.20;9.20;;;;;-143.57;100.00;65101.44;5017960;28;45802;-54
2023/06/10 02:21:10;;;;;;;;;13.00;12.25;;;;;-143.57;100.00;65101.44;5018098;28;45295;-53
2023/06/10 02:23:35;;;;;;;;;10.20;8.60;;;;;-143.57;100.00;65101.44;5018130;28;45445;-48
2023/06/10 02:26:01;;;;;;;;;12.00;10.75;;;;;-143.57;100.00;65101.44;5018148;28;45437;-53
2023/06/10 02:28:27;;;;;;;;;9.40;8.20;;;;;-143.57;100.00;65101.44;5000090;28;46078;-45
2023/06/10 02:30:53;;;;;;;;;8.75;8.25;;;;;-143.57;100.00;65101.44;5017897;28;45346;-47
2023/06/10 02:33:19;;;;;;;;;8.50;8.50;;;;;-143.57;100.00;65101.44;5018177;28;45296;-47
2023/06/10 02:35:45;;;;;;;;;8.20;6.00;;;;;-143.57;100.00;65101.44;5017610;28;45449;-53
2023/06/10 02:38:10;;;;;;;;;13.00;11.50;;;;;-143.57;100.00;65101.44;5017169;28;46053;-45
2023/06/10 02:40:36;;;;;;;;;12.50;9.50;;;;;-143.57;100.00;65101.44;5017683;28;45395;-44
2023/06/10 02:43:01;;;;;;;;;12.75;9.25;;;;;-143.57;100.00;65101.44;5018152;28;45421;-47
2023/06/10 02:45:27;;;;;;;;;12.25;9.00;;;;;-143.57;100.00;65101.44;5017887;28;45430;-46
2023/06/10 02:47:52;;;;;;;;;12.25;11.00;;;;;-143.57;100.00;65101.44;5017236;28;50614;-44
2023/06/10 02:50:17;;;;;;;;;10.00;8.25;;;;;-143.57;100.00;65101.44;5017576;28;45330;-48
2023/06/10 02:52:43;;;;;;;;;7.50;7.00;;;;;-143.57;100.00;65101.44;5017404;28;45489;-49
2023/06/10 02:55:09;;;;;;;;;10.75;9.25;;;;;-143.57;100.00;65101.44;5018053;28;45438;-47
2023/06/10 02:57:34;;;;;;;;;14.50;10.00;;;;;-143.57;100.00;65101.44;5016328;28;45389;-51
2023/06/10 03:00:01;;;;;;;;;11.00;8.00;;;;;-143.57;100.00;65101.44;5017275;28;45359;-53
2023/06/10 03:02:28;;;;;;;;;8.40;8.20;;;;;-143.57;100.00;65101.44;5017542;28;45338;-53
2023/06/10 03:04:55;;;;;;;;;8.80;8.00;;;;;-143.57;100.00;65101.44;5017670;28;45325;-53
2023/06/10 03:07:21;;;;;;;;;11.60;9.40;;;;;-143.57;100.00;65101.44;5016171;28;45429;-50
2023/06/10 03:09:46;;;;;;;;;8.00;7.00;;;;;-143.57;100.00;65101.44;5017671;28;46118;-50
2023/06/10 03:12:11;;;;;;;;;10.00;9.50;;;;;-143.57;100.00;65101.44;5017320;28;46013;-54
2023/06/10 03:14:38;;;;;;;;;8.50;8.50;;;;;-143.57;100.00;65101.44;5017302;28;45474;-50
2023/06/10 03:17:04;;;;;;;;;12.60;9.00;;;;;-143.57;100.00;65101.44;5017055;28;47081;-52
2023/06/10 03:19:30;;;;;;;;;9.20;7.20;;;;;-143.57;100.00;65101.44;5015975;28;45366;-52
2023/06/10 03:22:12;;;;;;;;;9.00;9.00;;;;;-143.57;100.00;65101.44;5017178;28;45351;-53
2023/06/10 03:24:39;;;;;;;;;10.80;9.40;;;;;-143.57;100.00;65101.44;5017408;28;45319;-47
2023/06/10 03:27:07;;;;;;;;;11.40;7.40;;;;;-143.57;100.00;65101.44;5016805;28;46193;-53
2023/06/10 03:29:33;;;;;;;;;9.40;8.40;;;;;-143.57;100.00;65101.44;5017072;28;45422;-43
2023/06/10 03:31:58;;;;;;;;;5.75;5.75;;;;;-143.57;100.00;65101.44;5016897;28;45371;-44
2023/06/10 03:34:23;;;;;;;;;10.75;9.00;;;;;-143.57;100.00;65101.44;5016941;28;45398;-43
2023/06/10 03:36:49;;;;;;;;;10.50;8.50;;;;;-143.57;100.00;65101.44;5015912;28;45347;-43
2023/06/10 03:39:15;;;;;;;;;10.00;8.50;;;;;-143.57;100.00;65101.44;5016814;28;45436;-51
2023/06/10 03:41:41;;;;;;;;;7.20;7.20;;;;;-143.57;100.00;65101.44;5017084;28;45319;-48
2023/06/10 03:44:07;;;;;;;;;11.00;8.50;;;;;-143.57;100.00;65101.44;5016955;28;45464;-53
2023/06/10 03:46:32;;;;;;;;;9.00;8.20;;;;;-143.57;100.00;65101.44;5016856;28;47248;-51
2023/06/10 03:49:00;;;;;;;;;12.00;10.00;;;;;-143.57;100.00;65101.44;5016506;28;45346;-50
2023/06/10 03:51:28;;;;;;;;;11.00;9.00;;;;;-143.57;100.00;65101.44;5016456;28;45386;-53
2023/06/10 03:53:54;;;;;;;;;10.00;7.75;;;;;-143.57;100.00;65101.44;5016907;28;45477;-54
2023/06/10 03:56:19;;;;;;;;;10.50;8.00;;;;;-143.57;100.00;65101.44;5016787;28;46017;-51
2023/06/10 03:58:45;;;;;;;;;9.00;8.00;;;;;-143.57;100.00;65101.44;5016642;28;52728;-51
2023/06/10 04:01:10;;;;;;;;;9.25;8.25;;;;;-143.57;100.00;65101.44;5016382;28;45440;-48
2023/06/10 04:03:36;;;;;;;;;9.75;8.00;;;;;-143.57;100.00;65101.44;5017044;28;45485;-52
2023/06/10 04:06:02;;;;;;;;;8.25;7.75;;;;;-143.57;100.00;65101.44;5017500;28;46072;-52
2023/06/10 04:08:28;;;;;;;;;9.40;7.60;;;;;-143.57;100.00;65101.44;5015325;28;45329;-52
2023/06/10 04:10:53;;;;;;;;;9.25;6.25;;;;;-143.57;100.00;65101.44;5016471;28;45389;-50
2023/06/10 04:13:19;;;;;;;;;9.50;9.25;;;;;-143.57;100.00;65101.44;5016563;28;45345;-50
2023/06/10 04:15:44;;;;;;;;;9.25;8.00;;;;;-143.57;100.00;65101.44;4998432;28;46212;-49
2023/06/10 04:18:10;;;;;;;;;9.50;8.75;;;;;-143.57;100.00;65101.44;5016188;28;45288;-52
2023/06/10 04:20:35;;;;;;;;;9.50;8.75;;;;;-143.57;100.00;65101.44;5016409;28;45328;-49
2023/06/10 04:23:01;;;;;;;;;8.50;7.25;;;;;-143.57;100.00;65101.44;4998738;28;45628;-48
2023/06/10 04:25:27;;;;;;;;;10.00;9.00;;;;;-143.57;100.00;65101.44;5016057;28;46005;-51
2023/06/10 04:27:52;;;;;;;;;11.20;8.40;;;;;-143.57;100.00;65101.44;5016377;28;45401;-52
2023/06/10 04:30:18;;;;;;;;;11.75;10.00;;;;;-143.57;100.00;65101.44;5016197;28;45749;-43
2023/06/10 04:32:43;;;;;;;;;8.25;6.75;;;;;-143.57;100.00;65101.44;5016416;28;45390;-50
2023/06/10 04:35:11;;;;;;;;;8.00;8.00;;;;;-143.57;100.00;65101.44;5016012;28;45462;-50
2023/06/10 04:37:37;;;;;;;;;9.20;9.20;;;;;-143.57;100.00;65101.44;5015908;28;45399;-45
2023/06/10 04:40:03;;;;;;;;;8.75;6.50;;;;;-143.57;100.00;65101.44;5016321;28;45311;-51
2023/06/10 04:42:28;;;;;;;;;9.25;8.25;;;;;-143.57;100.00;65101.44;5016106;28;45220;-52
2023/06/10 04:44:53;;;;;;;;;8.50;6.75;;;;;-143.57;100.00;65101.44;5015849;28;45892;-52
2023/06/10 04:47:19;;;;;;;;;9.00;9.00;;;;;-143.57;100.00;65101.44;5015744;28;45328;-46
2023/06/10 04:49:44;;;;;;;;;8.00;8.00;;;;;-143.57;100.00;65101.44;5016081;28;45355;-51
2023/06/10 04:52:09;;;;;;;;;9.25;8.00;;;;;-143.57;100.00;65101.44;5015983;28;45409;-54
2023/06/10 04:54:35;;;;;;;;;9.00;8.00;;;;;-143.57;100.00;65101.44;5016012;28;46219;-51
2023/06/10 04:57:00;;;;;;;;;7.50;5.75;;;;;-143.57;100.00;65101.44;5015669;28;45393;-51
2023/06/10 04:59:26;;;;;;;;;8.00;8.00;;;;;-143.57;100.00;65101.44;5014760;28;45450;-53
2023/06/10 05:01:51;;;;;;;;;8.00;7.50;;;;;-143.57;100.00;65101.44;5018736;28;45294;-48
2023/06/10 05:04:16;;;;;;;;;7.00;6.25;;;;;-143.57;100.00;65101.44;5019134;28;45459;-48
2023/06/10 05:06:42;;;;;;;;;9.50;9.50;;;;;-143.57;100.00;65101.44;5019377;28;45235;-51
2023/06/10 05:09:07;;;;;;;;;6.00;6.00;;;;;-143.57;100.00;65101.44;5019266;28;45991;-49
2023/06/10 05:11:33;;;;;;;;;6.75;6.75;;;;;-143.57;100.00;65101.44;5019766;28;45305;-53
2023/06/10 05:13:58;;;;;;;;;15.25;13.25;;;;;-143.57;100.00;65101.44;5018110;28;45446;-53
2023/06/10 05:16:23;;;;;;;;;5.50;5.00;;;;;-143.57;100.00;65101.44;5018549;28;50078;-47
2023/06/10 05:18:50;;;;;;;;;7.00;7.00;;;;;-143.57;100.00;65101.44;5019182;28;45806;-52
2023/06/10 05:21:16;;;;;;;;;9.00;9.00;;;;;-143.57;100.00;65101.44;5019220;28;45371;-52
2023/06/10 05:23:42;;;;;;;;;8.75;7.00;;;;;-143.57;100.00;65101.44;5001155;28;48370;-51
2023/06/10 05:26:07;;;;;;;;;7.75;7.00;;;;;-143.57;100.00;65101.44;5001236;28;45506;-46
2023/06/10 05:28:33;;;;;;;;;9.75;8.00;;;;;-143.57;100.00;65101.44;5019288;28;45398;-53
2023/06/10 05:30:58;;;;;;;;;5.50;5.50;;;;;-143.57;100.00;65101.44;5018997;28;45469;-50
2023/06/10 05:33:23;;;;;;;;;10.50;8.75;;;;;-143.57;100.00;65101.44;5018654;28;46312;-49
2023/06/10 05:35:49;;;;;;;;;8.50;7.00;;;;;-143.57;100.00;65101.44;5026781;28;45565;-52
2023/06/10 05:38:14;;;;;;;;;9.25;6.75;;;;;-143.57;100.00;65101.44;5038537;28;45532;-50
2023/06/10 05:40:40;;;;;;;;;7.00;7.00;;;;;-143.57;100.00;65101.44;5038831;28;45350;-51
2023/06/10 05:43:05;;;;;;;;;11.75;9.75;;;;;-143.57;100.00;65101.44;5020346;28;45473;-52
2023/06/10 05:45:30;;;;;;;;;9.00;7.75;;;;;-143.57;100.00;65101.44;5037690;28;45274;-49
2023/06/10 05:47:56;;;;;;;;;9.50;8.00;;;;;-143.57;100.00;65101.44;5038533;28;45329;-52
2023/06/10 05:50:21;;;;;;;;;8.00;7.75;;;;;-143.57;100.00;65101.44;5037802;28;45600;-49
2023/06/10 05:52:47;;;;;;;;;9.00;8.75;;;;;-143.57;100.00;65101.44;5038151;28;45434;-51
2023/06/10 05:55:12;;;;;;;;;9.00;9.00;;;;;-143.57;100.00;65101.44;5038351;28;45367;-52
2023/06/10 05:57:37;;;;;;;;;8.00;7.00;;;;;-143.57;100.00;65101.44;5038220;28;46403;-49
2023/06/10 06:00:04;;;;;;;;;10.00;7.50;;;;;-143.57;100.00;65101.44;5020452;28;45527;-50
2023/06/10 06:02:29;;;;;;;;;8.00;4.25;;;;;-143.57;100.00;65101.44;5038236;28;46033;-53
2023/06/10 06:04:55;;;;;;;;;7.50;6.50;;;;;-143.57;100.00;65101.44;5037944;28;45389;-53
2023/06/10 06:07:20;;;;;;;;;8.25;8.25;;;;;-143.57;100.00;65101.44;5038398;28;45358;-51
2023/06/10 06:09:46;;;;;;;;;8.25;7.00;;;;;-143.57;100.00;65101.44;5038373;28;45340;-54
2023/06/10 06:12:12;;;;;;;;;7.50;7.25;;;;;-143.57;100.00;65101.44;5037828;28;46306;-49
2023/06/10 06:14:41;;;;;;;;;8.75;8.50;;;;;-143.57;100.00;65101.44;5038132;28;45416;-45
2023/06/10 06:17:07;;;;;;;;;9.80;9.80;;;;;-143.57;100.00;65101.44;5038102;28;45385;-47
2023/06/10 06:19:33;;;;;;;;;9.00;6.25;;;;;-143.57;100.00;65101.44;5020865;28;45429;-53
2023/06/10 06:21:58;;;;;;;;;7.75;7.75;;;;;-143.57;100.00;65101.44;5022387;28;45595;-52
2023/06/10 06:24:24;;;;;;;;;9.25;9.25;;;;;-143.57;100.00;65101.44;5017786;28;45521;-51
2023/06/10 06:26:49;;;;;;;;;7.25;7.25;;;;;-143.57;100.00;65101.44;5016480;28;46332;-52
2023/06/10 06:29:14;;;;;;;;;7.00;7.00;;;;;-143.57;100.00;65101.44;5017713;28;45454;-51
2023/06/10 06:31:40;;;;;;;;;11.00;8.00;;;;;-143.57;100.00;65101.44;5017198;28;45481;-50
2023/06/10 06:34:05;;;;;;;;;10.50;8.50;;;;;-143.57;100.00;65101.44;5017436;28;45355;-47
2023/06/10 06:36:30;;;;;;;;;7.75;6.75;;;;;-143.57;100.00;65101.44;5016970;28;45263;-53
2023/06/10 06:38:58;;;;;;;;;6.50;6.50;;;;;-143.57;100.00;65101.44;5017918;28;45296;-54
2023/06/10 06:41:26;;;;;;;;;8.20;7.40;;;;;-143.57;100.00;65101.44;5017141;28;46366;-50
2023/06/10 06:43:51;;;;;;;;;12.00;9.20;;;;;-143.57;100.00;65101.44;5017211;28;45358;-51
2023/06/10 06:46:16;;;;;;;;;8.25;8.00;;;;;-143.57;100.00;65101.44;5017261;28;45434;-50
2023/06/10 06:48:42;;;;;;;;;8.50;8.50;;;;;-143.57;100.00;65101.44;5017538;28;45410;-55
2023/06/10 06:51:07;;;;;;;;;11.75;8.00;;;;;-143.57;100.00;65101.44;5017657;28;46151;-54
2023/06/10 06:53:32;;;;;;;;;8.50;8.00;;;;;-143.57;100.00;65101.44;5017253;28;45464;-54
2023/06/10 06:55:58;;;;;;;;;7.00;7.00;;;;;-143.57;100.00;65101.44;5017663;28;45223;-54
2023/06/10 06:58:23;;;;;;;;;7.00;7.00;;;;;-143.57;100.00;65101.44;4999251;28;45970;-54
2023/06/10 07:00:48;;;;;;;;;9.00;6.75;;;;;-143.57;100.00;65101.44;5016966;28;49257;-51
2023/06/10 07:03:14;;;;;;;;;8.25;6.75;;;;;-143.57;100.00;65101.44;5017404;28;45395;-44
2023/06/10 07:05:39;;;;;;;;;9.25;7.00;;;;;-143.57;100.00;65101.44;5017481;28;45419;-52
2023/06/10 07:08:04;;;;;;;;;6.75;6.75;;;;;-143.57;100.00;65101.44;5017735;28;45517;-49
2023/06/10 07:10:30;;;;;;;;;13.00;7.75;;;;;-143.57;100.00;65101.44;5017199;28;46173;-54
2023/06/10 07:12:55;;;;;;;;;9.25;6.25;;;;;-143.57;100.00;65101.44;5017032;28;45386;-54
2023/06/10 07:15:21;;;;;;;;;9.25;6.25;;;;;-143.57;100.00;65101.44;4999612;28;45533;-54
2023/06/10 07:17:46;;;;;;;;;10.50;8.00;;;;;-143.57;100.00;65101.44;4999272;28;45436;-54
2023/06/10 07:20:13;;;;;;;;;7.25;7.25;;;;;-143.57;100.00;65101.44;5017010;28;45796;-52
2023/06/10 07:22:39;;;;;;;;;9.40;8.60;;;;;-143.57;100.00;65101.44;5016464;28;45342;-49
2023/06/10 07:25:05;;;;;;;;;7.25;7.25;;;;;-143.57;100.00;65101.44;5017346;28;45384;-50
2023/06/10 07:27:30;;;;;;;;;10.40;7.00;;;;;-143.57;100.00;65101.44;5017241;28;45383;-50
2023/06/10 07:29:55;;;;;;;;;10.50;8.25;;;;;-143.57;100.00;65101.44;5016932;28;46066;-53
2023/06/10 07:32:22;;;;;;;;;7.50;7.00;;;;;-143.57;100.00;65101.44;5016775;28;45405;-52
2023/06/10 07:34:47;;;;;;;;;8.60;7.00;;;;;-143.57;100.00;65101.44;5017258;28;45400;-54
2023/06/10 07:37:12;;;;;;;;;7.00;6.75;;;;;-143.57;100.00;65101.44;5017297;28;45462;-53
2023/06/10 07:39:38;;;;;;;;;8.00;8.00;;;;;-143.57;100.00;65101.44;5016897;28;47011;-43
2023/06/10 07:42:03;;;;;;;;;7.00;7.00;;;;;-143.57;100.00;65101.44;5017120;28;45322;-51
2023/06/10 07:44:29;;;;;;;;;7.50;7.50;;;;;-143.57;100.00;65101.44;5017078;28;45445;-50
2023/06/10 07:46:54;;;;;;;;;6.25;6.25;;;;;-143.57;100.00;65101.44;5017238;28;45386;-48
2023/06/10 07:49:20;;;;;;;;;7.00;6.00;;;;;-143.57;100.00;65101.44;5016742;28;45969;-54
2023/06/10 07:51:45;;;;;;;;;11.50;8.75;;;;;-143.57;100.00;65101.44;5010721;28;45446;-50
2023/06/10 07:54:12;;;;;;;;;6.25;6.00;;;;;-143.57;100.00;65101.44;4996997;28;45389;-50
2023/06/10 07:56:37;;;;;;;;;7.40;7.40;;;;;-143.57;100.00;65101.44;4996878;28;45649;-46
2023/06/10 07:59:03;;;;;;;;;6.50;6.50;;;;;-143.57;100.00;65101.44;4997064;28;45363;-52
2023/06/10 08:01:30;;;;;;;;;7.50;7.00;;;;;-143.57;100.00;65101.44;4978888;28;45431;-49
2023/06/10 08:03:55;;;;;;;;;9.00;7.00;;;;;-143.57;100.00;65101.44;4996977;28;45340;-48
2023/06/10 08:06:20;;;;;;;;;9.75;7.00;;;;;-143.57;100.00;65101.44;4997080;28;45394;-52
2023/06/10 08:08:46;;;;;;;;;6.75;6.75;;;;;-143.57;100.00;65101.44;4996847;28;46220;-46
2023/06/10 08:11:11;;;;;;;;;6.00;5.00;;;;;-143.57;100.00;65101.44;4996205;28;45412;-47
2023/06/10 08:13:36;;;;;;;;;8.25;7.75;;;;;-143.57;100.00;65101.44;4996908;28;45380;-45
2023/06/10 08:16:03;;;;;;;;;7.25;7.00;;;;;-143.57;100.00;65101.44;4997126;28;45284;-49
2023/06/10 08:18:28;;;;;;;;;7.80;7.00;;;;;-143.57;100.00;65101.44;4996566;28;46295;-46
2023/06/10 08:20:54;;;;;;;;;5.50;5.25;;;;;-143.57;100.00;65101.44;4996908;28;45311;-48
2023/06/10 08:23:19;;;;;;;;;6.00;6.00;;;;;-143.57;100.00;65101.44;4996628;28;45356;-47
2023/06/10 08:25:45;;;;;;;;;10.00;6.50;;;;;-143.57;100.00;65101.44;4996735;28;45406;-48
2023/06/10 08:28:10;;;;;;;;;7.75;6.00;;;;;-143.57;100.00;65101.44;4978647;28;46048;-45
2023/06/10 08:30:35;;;;;;;;;7.00;7.00;;;;;-143.57;100.00;65101.44;4996314;28;45417;-44
2023/06/10 08:33:01;;;;;;;;;5.00;5.00;;;;;-143.57;100.00;65101.44;4996143;28;45358;-45
2023/06/10 08:35:26;;;;;;;;;7.50;5.75;;;;;-143.57;100.00;65101.44;4995504;28;45481;-49
2023/06/10 08:37:51;;;;;;;;;4.00;4.00;;;;;-143.57;100.00;65101.44;5022080;28;45371;-46
2023/06/10 08:40:17;;;;;;;;;7.00;5.00;;;;;-143.57;100.00;65101.44;5035778;28;45429;-48
2023/06/10 08:42:51;;;;;;;;;5.00;5.00;;;;;-143.57;100.00;65101.44;5036100;28;45490;-44
2023/06/10 08:45:18;;;;;;;;;4.00;4.00;;;;;-143.57;100.00;65101.44;5036039;28;45476;-50
2023/06/10 08:47:46;;;;;;;;;4.60;4.60;;;;;-143.57;100.00;65101.44;5035676;28;46132;-45
2023/06/10 08:50:12;;;;;;;;;4.40;2.80;;;;;-143.57;100.00;65101.44;5035802;28;45447;-48
2023/06/10 08:52:42;;;;;;;;;3.50;3.50;;;;;-143.57;100.00;65101.44;5035952;28;45560;-44
2023/06/10 08:55:19;;;;;;;;;4.80;3.40;;;;;-143.57;100.00;65101.44;5018257;28;45505;-47
2023/06/10 08:57:45;;;;;;;;;7.40;4.60;;;;;-143.57;100.00;65101.44;5034972;28;45560;-45
2023/06/10 09:00:12;;;;;;;;;2.00;2.00;;;;;-143.57;100.00;65101.44;5035776;28;45318;-45
2023/06/10 09:02:38;;;;;;;;;3.20;3.20;;;;;-143.57;100.00;65101.44;5035763;28;45688;-49
2023/06/10 09:05:03;;;;;;;;;5.80;4.20;;;;;-143.57;100.00;65101.44;5035952;28;45437;-51
2023/06/10 09:07:31;;;;;;;;;3.00;3.00;;;;;-143.57;100.00;65101.44;5035721;28;46795;-50
2023/06/10 09:09:58;;;;;;;;;6.80;5.00;;;;;-143.57;100.00;65101.44;5035531;28;45600;-44
2023/06/10 09:12:24;;;;;;;;;4.20;4.20;;;;;-143.57;100.00;65101.44;5035601;28;45525;-44
2023/06/10 09:14:49;;;;;;;;;5.00;4.00;;;;;-143.57;100.00;65101.44;5036034;28;45222;-43
2023/06/10 09:17:16;;;;;;;;;5.25;5.00;;;;;-143.57;100.00;65101.44;5035402;28;46307;-52
2023/06/10 09:19:43;;;;;;;;;3.80;3.80;;;;;-143.57;100.00;65101.44;5035683;28;45369;-46
2023/06/10 09:22:09;;;;;;;;;4.80;3.60;;;;;-143.57;100.00;65101.44;5035547;28;45396;-50
2023/06/10 09:24:35;;;;;;;;;5.00;2.50;;;;;-143.57;100.00;65101.44;5035540;28;45414;-49
2023/06/10 09:27:07;;;;;;;;;3.75;3.00;;;;;-143.57;100.00;65101.44;5035495;28;46095;-44
2023/06/10 09:29:46;;;;;;;;;3.40;2.60;;;;;-143.57;100.00;65101.44;5035287;28;45361;-48
2023/06/10 09:32:13;;;;;;;;;4.00;4.00;;;;;-143.57;100.00;65101.44;5035090;28;45495;-45
2023/06/10 09:34:39;;;;;;;;;6.00;3.80;;;;;-143.57;100.00;65101.44;5035474;28;45377;-51
2023/06/10 09:37:05;;;;;;;;;3.40;3.40;;;;;-143.57;100.00;65101.44;5035017;28;46723;-43
2023/06/10 09:39:30;;;;;;;;;3.75;2.25;;;;;-143.57;100.00;65101.44;5035033;28;45311;-43
2023/06/10 09:41:56;;;;;;;;;3.50;3.50;;;;;-143.57;100.00;65101.44;5035281;28;45353;-45
2023/06/10 09:44:22;;;;;;;;;3.00;3.00;;;;;-143.57;100.00;65101.44;5035403;28;45489;-46
2023/06/10 09:46:51;;;;;;;;;3.00;3.00;;;;;-143.57;100.00;65101.44;5037296;28;47104;-43
2023/06/10 09:49:17;;;;;;;;;3.00;3.00;;;;;-143.57;100.00;65101.44;5038486;28;45765;-47
2023/06/10 09:51:53;;;;;;;;;4.60;3.60;;;;;-143.57;100.00;65101.44;5038690;28;45341;-48
2023/06/10 09:54:19;;;;;;;;;4.20;4.20;;;;;-143.57;100.00;65101.44;5039139;28;45724;-53
2023/06/10 09:56:50;;;;;;;;;5.80;4.60;;;;;-143.57;100.00;65101.44;5038394;28;46680;-51
2023/06/10 09:59:15;;;;;;;;;4.40;4.40;;;;;-143.57;100.00;65101.44;5038589;28;45357;-46
2023/06/10 10:01:44;;;;;;;;;4.25;4.25;;;;;-143.57;100.00;65101.44;5038678;28;45389;-45
2023/06/10 10:04:09;;;;;;;;;5.00;5.00;;;;;-143.57;100.00;65101.44;5038381;28;45314;-51
2023/06/10 10:06:36;;;;;;;;;3.00;3.00;;;;;-143.57;100.00;65101.44;5037384;28;45322;-52
2023/06/10 10:09:03;;;;;;;;;4.40;4.40;;;;;-143.57;100.00;65101.44;5038299;28;45365;-50
2023/06/10 10:11:31;;;;;;;;;4.20;3.60;;;;;-143.57;100.00;65101.44;5038524;28;45293;-43
2023/06/10 10:13:57;;;;;;;;;7.20;5.80;;;;;-143.57;100.00;65101.44;5038441;28;45440;-43
2023/06/10 10:16:31;;;;;;;;;6.00;6.00;;;;;-143.57;100.00;65101.44;5038124;28;46338;-51
2023/06/10 10:19:05;;;;;;;;;5.60;5.60;;;;;-143.57;100.00;65101.44;5037130;28;45353;-42
2023/06/10 10:21:37;;;;;;;;;4.80;4.80;;;;;-143.57;100.00;65101.44;5038051;28;45429;-43
2023/06/10 10:24:23;;;;;;;;;5.00;5.00;;;;;-143.57;100.00;65101.44;5038418;28;45355;-44
2023/06/10 10:26:50;;;;;;;;;6.40;3.80;;;;;-143.57;100.00;65101.44;5037231;28;45823;-40
2023/06/10 10:29:30;;;;;;;;;7.60;5.60;;;;;-143.57;100.00;65101.44;5037670;28;45355;-42
2023/06/10 10:32:00;;;;;;;;;6.00;5.20;;;;;-143.57;100.00;65101.44;5020382;28;45366;-46
2023/06/10 10:34:48;;;;;;;;;4.40;4.40;;;;;-143.57;100.00;65101.44;5038021;28;45389;-41
2023/06/10 10:37:13;;;;;;;;;5.60;5.60;;;;;-143.57;100.00;65101.44;5038060;28;45493;-43
2023/06/10 10:39:39;;;;;;;;;4.50;4.50;;;;;-143.57;100.00;65101.44;5037723;28;52589;-43
2023/06/10 10:42:09;;;;;;;;;4.00;4.00;;;;;-143.57;100.00;65101.44;5037971;28;45567;-43
2023/06/10 10:44:35;;;;;;;;;3.60;3.60;;;;;-143.57;100.00;65101.44;5026163;28;45449;-41
2023/06/10 10:47:04;;;;;;;;;6.80;6.80;;;;;-143.57;100.00;65101.44;5034394;28;46437;-40
2023/06/10 10:49:30;;;;;;;;;5.20;5.20;;;;;-143.57;100.00;65101.44;5037071;28;45326;-41
2023/06/10 10:52:00;;;;;;;;;6.40;5.20;;;;;-143.57;100.00;65101.44;5037285;28;45392;-41
2023/06/10 10:54:37;;;;;;;;;6.40;5.00;;;;;-143.57;100.00;65101.44;5037439;28;45401;-41
2023/06/10 10:57:15;;;;;;;;;6.20;5.60;;;;;-143.57;100.00;65101.44;5036302;28;46473;-41
2023/06/10 10:59:59;;;;;;;;;9.00;7.00;;;;;-143.57;100.00;65101.44;5036965;28;45334;-42
2023/06/10 11:02:38;;;;;;;;;5.80;5.80;;;;;-143.57;100.00;65101.44;5036351;28;45497;-42
2023/06/10 11:05:05;;;;;;;;;11.80;6.60;;;;;-143.57;100.00;65101.44;5037057;28;45589;-41